TimeMDT,TemperatureF,Dew PointF,Humidity,Sea Level PressureIn,VisibilityMPH,Wind Direction,Wind SpeedMPH,Gust SpeedMPH,PrecipitationIn,Events,Conditions,WindDirDegrees,DateUTC
12:53 AM,33.8,24.8,70,30.22,10.0,ESE,4.6,-,N/A,,Overcast,120,2012-10-07 06:53:00
1:53 AM,33.1,25.0,72,30.23,10.0,ESE,4.6,-,N/A,,Overcast,110,2012-10-07 07:53:00
2:53 AM,30.9,25.0,79,30.24,10.0,SSE,4.6,-,N/A,,Mostly Cloudy,150,2012-10-07 08:53:00
3:53 AM,30.0,23.0,75,30.21,10.0,South,5.8,-,N/A,,Scattered Clouds,180,2012-10-07 09:53:00
4:53 AM,28.9,23.0,78,30.22,10.0,WSW,4.6,-,N/A,,Scattered Clouds,240,2012-10-07 10:53:00
5:53 AM,30.0,23.0,75,30.21,10.0,West,4.6,-,N/A,,Partly Cloudy,270,2012-10-07 11:53:00
6:53 AM,28.0,21.9,78,30.22,10.0,WSW,4.6,-,N/A,,Partly Cloudy,250,2012-10-07 12:53:00
7:53 AM,30.9,24.1,76,30.21,10.0,WSW,5.8,-,N/A,,Partly Cloudy,240,2012-10-07 13:53:00
8:53 AM,36.0,26.1,67,30.20,10.0,SW,9.2,-,N/A,,Partly Cloudy,230,2012-10-07 14:53:00
9:53 AM,41.0,21.9,47,30.18,10.0,SSW,6.9,-,N/A,,Partly Cloudy,210,2012-10-07 15:53:00
10:53 AM,44.6,17.6,34,30.17,10.0,North,5.8,-,N/A,,Clear,360,2012-10-07 16:53:00
11:53 AM,46.9,14.0,27,30.13,10.0,NE,5.8,-,N/A,,Partly Cloudy,50,2012-10-07 17:53:00
12:53 PM,50.0,12.0,22,30.09,10.0,North,6.9,-,N/A,,Partly Cloudy,360,2012-10-07 18:53:00
1:53 PM,50.0,10.9,21,30.06,10.0,Variable,4.6,-,N/A,,Partly Cloudy,0,2012-10-07 19:53:00
2:53 PM,50.0,12.0,22,30.05,10.0,East,6.9,-,N/A,,Partly Cloudy,80,2012-10-07 20:53:00
3:53 PM,52.0,10.9,19,30.03,10.0,North,3.5,-,N/A,,Partly Cloudy,10,2012-10-07 21:53:00
4:53 PM,52.0,10.0,19,30.03,10.0,NE,3.5,-,N/A,,Partly Cloudy,50,2012-10-07 22:53:00
5:53 PM,50.0,10.0,20,30.04,10.0,Calm,Calm,-,N/A,,Partly Cloudy,0,2012-10-07 23:53:00
6:53 PM,42.1,16.0,35,30.07,10.0,South,9.2,-,N/A,,Partly Cloudy,170,2012-10-08 00:53:00
7:53 PM,39.9,16.0,38,30.07,10.0,South,9.2,-,N/A,,Partly Cloudy,170,2012-10-08 01:53:00
8:53 PM,36.0,19.0,50,30.07,10.0,SSE,10.4,-,N/A,,Partly Cloudy,160,2012-10-08 02:53:00
9:53 PM,34.0,18.0,52,30.04,10.0,South,11.5,-,N/A,,Partly Cloudy,170,2012-10-08 03:53:00
10:53 PM,34.0,18.0,52,30.01,10.0,SSE,11.5,-,N/A,,Clear,150,2012-10-08 04:53:00
11:53 PM,32.0,19.0,59,29.99,10.0,SSW,9.2,-,N/A,,Clear,210,2012-10-08 05:53:00